createdAt,value
2019-02-19T00:00:51.026Z,4.59
2019-02-19T00:03:20.707Z,4.65
2019-02-19T00:05:50.832Z,4.76
2019-02-19T00:08:20.047Z,4.64
2019-02-19T00:10:50.358Z,4.73
2019-02-19T00:13:21.391Z,4.80
2019-02-19T00:15:51.039Z,4.87
2019-02-19T00:18:21.144Z,4.85
2019-02-19T00:20:51.131Z,5.18
2019-02-19T00:23:20.946Z,5.67
2019-02-19T00:25:50.139Z,5.43
2019-02-19T00:28:19.574Z,6.15
2019-02-19T00:30:49.600Z,5.68
2019-02-19T00:33:19.267Z,5.21
2019-02-19T00:35:48.967Z,4.96
2019-02-19T00:38:18.814Z,4.93
2019-02-19T00:40:48.344Z,5.18
2019-02-19T00:43:17.910Z,5.23
2019-02-19T00:45:47.243Z,5.40
2019-02-19T00:48:16.880Z,5.60
2019-02-19T00:50:47.842Z,5.55
2019-02-19T00:53:17.649Z,5.64
2019-02-19T00:55:47.062Z,6.25
2019-02-19T00:58:16.272Z,6.12
2019-02-19T01:00:46.022Z,6.34
2019-02-19T01:03:16.007Z,5.87
2019-02-19T01:05:45.697Z,6.12
2019-02-19T01:08:16.397Z,5.99
2019-02-19T01:10:46.670Z,5.92
2019-02-19T01:13:15.850Z,5.64
2019-02-19T01:15:45.133Z,5.76
2019-02-19T01:18:14.570Z,5.92
2019-02-19T01:20:43.697Z,5.95
2019-02-19T01:23:13.170Z,5.87
2019-02-19T01:25:42.555Z,5.99
2019-02-19T01:28:13.178Z,5.74
2019-02-19T01:30:43.419Z,5.33
2019-02-19T01:33:13.026Z,4.97
2019-02-19T01:35:43.226Z,4.85
2019-02-19T01:38:12.654Z,4.79
2019-02-19T01:40:42.055Z,5.28
2019-02-19T01:43:17.193Z,5.38
2019-02-19T01:45:46.882Z,4.92
2019-02-19T01:48:16.040Z,4.74
2019-02-19T01:50:46.198Z,4.50
2019-02-19T01:53:15.526Z,4.58
2019-02-19T01:55:45.427Z,4.50
2019-02-19T01:58:14.820Z,4.53
2019-02-19T02:00:44.711Z,4.35
2019-02-19T02:03:15.430Z,4.29
2019-02-19T02:05:45.602Z,4.43
2019-02-19T02:08:15.087Z,4.99
2019-02-19T02:10:44.304Z,5.58
2019-02-19T02:13:14.282Z,5.64
2019-02-19T02:15:44.143Z,5.07
2019-02-19T02:18:13.679Z,4.97
2019-02-19T02:20:43.462Z,4.82
2019-02-19T02:23:13.529Z,5.48
2019-02-19T02:25:42.814Z,5.34
2019-02-19T02:28:12.164Z,5.62
2019-02-19T02:30:41.454Z,5.05
2019-02-19T02:33:10.870Z,4.80
2019-02-19T02:35:40.064Z,4.69
2019-02-19T02:38:09.343Z,5.16
2019-02-19T02:40:39.764Z,5.54
2019-02-19T02:43:10.104Z,5.02
2019-02-19T02:45:39.727Z,4.85
2019-02-19T02:48:09.107Z,5.16
2019-02-19T02:50:38.440Z,4.85
2019-02-19T02:53:08.231Z,5.14
2019-02-19T02:55:38.284Z,5.54
2019-02-19T02:58:09.712Z,4.84
2019-02-19T03:00:40.070Z,4.61
2019-02-19T03:03:09.635Z,4.84
2019-02-19T03:05:40.456Z,4.93
2019-02-19T03:08:10.875Z,5.24
2019-02-19T03:10:40.301Z,5.09
2019-02-19T03:13:10.401Z,5.06
2019-02-19T03:15:40.834Z,4.97
2019-02-19T03:18:10.440Z,4.70
2019-02-19T03:20:39.744Z,4.34
2019-02-19T03:23:09.794Z,4.30
2019-02-19T03:25:39.147Z,4.24
2019-02-19T03:28:08.473Z,4.65
2019-02-19T03:30:38.086Z,4.65
2019-02-19T03:33:07.363Z,4.72
2019-02-19T03:35:38.279Z,5.09
2019-02-19T03:38:07.761Z,4.86
2019-02-19T03:40:37.712Z,4.84
2019-02-19T03:43:07.114Z,4.96
2019-02-19T03:45:37.521Z,4.86
2019-02-19T03:48:07.014Z,4.82
2019-02-19T03:50:36.866Z,4.73
2019-02-19T03:53:08.178Z,4.61
2019-02-19T03:55:38.727Z,4.25
2019-02-19T03:58:08.769Z,4.13
2019-02-19T04:00:38.221Z,3.82
2019-02-19T04:03:07.582Z,4.65
2019-02-19T04:05:36.962Z,4.98
2019-02-19T04:08:06.228Z,5.17
2019-02-19T04:10:35.464Z,5.34
2019-02-19T04:13:05.565Z,4.82
2019-02-19T04:15:35.617Z,4.32
2019-02-19T04:18:04.926Z,4.01
2019-02-19T04:20:34.220Z,4.10
2019-02-19T04:23:03.534Z,4.06
2019-02-19T04:25:32.760Z,4.24
2019-02-19T04:28:03.831Z,4.23
2019-02-19T04:30:33.098Z,4.11
2019-02-19T04:33:02.619Z,4.58
2019-02-19T04:35:32.043Z,4.29
2019-02-19T04:38:02.137Z,4.05
2019-02-19T04:40:31.365Z,4.09
2019-02-19T04:43:00.641Z,4.28
2019-02-19T04:45:30.242Z,4.13
2019-02-19T04:48:00.327Z,4.18
2019-02-19T04:50:29.797Z,4.01
2019-02-19T04:53:00.396Z,4.23
2019-02-19T04:55:29.813Z,4.06
2019-02-19T04:57:59.009Z,4.28
2019-02-19T05:00:28.270Z,4.00
2019-02-19T05:02:57.940Z,4.06
2019-02-19T05:05:28.029Z,4.30
2019-02-19T05:07:57.449Z,3.97
2019-02-19T05:10:26.729Z,4.33
2019-02-19T05:12:56.623Z,4.77
2019-02-19T05:15:27.013Z,4.56
2019-02-19T05:17:56.128Z,4.23
2019-02-19T05:20:25.447Z,4.37
2019-02-19T05:22:54.709Z,4.48
2019-02-19T05:25:23.987Z,4.46
2019-02-19T05:27:53.197Z,4.50
2019-02-19T05:30:22.574Z,4.54
2019-02-19T05:32:53.255Z,4.49
2019-02-19T05:35:24.708Z,4.51
2019-02-19T05:37:54.087Z,4.58
2019-02-19T05:40:23.368Z,4.59
2019-02-19T05:42:52.553Z,4.65
2019-02-19T05:45:21.975Z,4.66
2019-02-19T05:47:51.488Z,4.59
2019-02-19T05:50:20.785Z,4.66
2019-02-19T05:52:51.467Z,5.02
2019-02-19T05:55:21.759Z,5.14
2019-02-19T05:57:50.965Z,4.92
2019-02-19T06:00:20.990Z,4.85
2019-02-19T06:02:50.597Z,4.98
2019-02-19T06:05:20.069Z,4.95
2019-02-19T06:07:49.242Z,4.64
2019-02-19T06:10:18.595Z,4.59
2019-02-19T06:12:48.539Z,4.79
2019-02-19T06:15:18.608Z,4.83
2019-02-19T06:17:47.982Z,4.76
2019-02-19T06:20:17.232Z,4.78
2019-02-19T06:22:46.582Z,4.77
2019-02-19T06:25:15.820Z,4.61
2019-02-19T06:27:44.979Z,4.86
2019-02-19T06:30:14.199Z,4.86
2019-02-19T06:32:43.575Z,4.83
2019-02-19T06:35:13.428Z,4.93
2019-02-19T06:37:43.590Z,5.33
2019-02-19T06:40:24.418Z,5.34
2019-02-19T06:42:55.175Z,5.29
2019-02-19T06:45:25.579Z,5.26
2019-02-19T06:47:54.963Z,5.16
2019-02-19T06:50:24.169Z,5.15
2019-02-19T06:52:53.523Z,5.15
2019-02-19T06:55:22.780Z,5.15
2019-02-19T06:57:52.154Z,4.95
2019-02-19T07:00:21.441Z,5.06
2019-02-19T07:02:52.456Z,5.14
2019-02-19T07:05:23.831Z,5.13
2019-02-19T07:07:53.028Z,5.24
2019-02-19T07:10:22.431Z,5.30
2019-02-19T07:12:51.739Z,5.38
2019-02-19T07:15:21.113Z,5.34
2019-02-19T07:17:50.225Z,5.33
2019-02-19T07:20:19.434Z,5.51
2019-02-19T07:22:50.135Z,5.47
2019-02-19T07:25:20.492Z,5.56
2019-02-19T07:27:49.937Z,5.38
2019-02-19T07:30:19.225Z,5.38
2019-02-19T07:32:48.499Z,5.20
2019-02-19T07:35:17.923Z,5.50
2019-02-19T07:37:47.182Z,5.35
2019-02-19T07:40:17.487Z,5.49
2019-02-19T07:42:47.451Z,5.32
2019-02-19T07:45:17.638Z,5.44
2019-02-19T07:47:46.892Z,5.48
2019-02-19T07:50:16.264Z,5.58
2019-02-19T07:52:45.558Z,5.56
2019-02-19T07:55:14.846Z,5.71
2019-02-19T07:57:44.137Z,5.68
2019-02-19T08:00:13.715Z,5.64
2019-02-19T08:02:44.438Z,5.71
2019-02-19T08:05:15.014Z,5.88
2019-02-19T08:07:44.335Z,5.82
2019-02-19T08:10:13.509Z,5.86
2019-02-19T08:12:42.831Z,5.86
2019-02-19T08:15:13.260Z,5.94
2019-02-19T08:17:42.660Z,6.08
2019-02-19T08:20:15.702Z,5.95
2019-02-19T08:22:44.770Z,5.95
2019-02-19T08:25:14.146Z,6.21
2019-02-19T08:27:43.433Z,6.37
2019-02-19T08:30:12.721Z,6.48
2019-02-19T08:32:42.058Z,6.45
2019-02-19T08:35:11.330Z,6.65
2019-02-19T08:37:40.661Z,6.90
2019-02-19T08:40:12.226Z,7.39
2019-02-19T08:42:42.817Z,7.52
2019-02-19T08:45:12.209Z,7.51
2019-02-19T08:47:42.910Z,7.33
2019-02-19T08:50:12.947Z,7.38
2019-02-19T08:52:42.644Z,7.07
2019-02-19T08:55:12.682Z,6.94
2019-02-19T08:57:42.762Z,7.24
2019-02-19T09:00:12.820Z,7.37
2019-02-19T09:02:42.138Z,7.43
2019-02-19T09:05:11.470Z,7.40
2019-02-19T09:07:40.849Z,7.34
2019-02-19T09:10:12.308Z,7.55
2019-02-19T09:12:41.733Z,7.53
2019-02-19T09:15:13.550Z,7.31
2019-02-19T09:17:51.284Z,7.35
2019-02-19T09:20:14.424Z,7.05
2019-02-19T09:22:43.683Z,6.99
2019-02-19T09:25:13.146Z,7.12
2019-02-19T09:27:43.436Z,7.28
2019-02-19T09:30:15.373Z,7.29
2019-02-19T09:32:45.797Z,7.25
2019-02-19T09:35:14.998Z,7.20
2019-02-19T09:37:44.875Z,7.31
2019-02-19T09:40:14.847Z,7.40
2019-02-19T09:42:44.786Z,7.21
2019-02-19T09:45:14.982Z,7.19
2019-02-19T09:47:45.443Z,7.31
2019-02-19T09:50:15.104Z,7.28
2019-02-19T09:52:44.963Z,7.40
2019-02-19T09:55:14.623Z,7.30
2019-02-19T09:57:44.551Z,7.47
2019-02-19T10:00:14.841Z,7.61
2019-02-19T10:02:44.470Z,7.51
2019-02-19T10:05:14.613Z,7.71
2019-02-19T10:07:45.513Z,7.56
2019-02-19T10:10:17.620Z,7.60
2019-02-19T10:12:47.563Z,7.53
2019-02-19T10:15:17.344Z,7.67
2019-02-19T10:17:47.257Z,7.75
2019-02-19T10:20:17.529Z,7.75
2019-02-19T10:22:47.061Z,7.78
2019-02-19T10:25:16.831Z,7.63
2019-02-19T10:27:46.014Z,7.68
2019-02-19T10:30:18.121Z,7.65
2019-02-19T10:32:48.055Z,7.67
2019-02-19T10:35:17.818Z,7.68
2019-02-19T10:37:51.853Z,7.81
2019-02-19T10:40:22.104Z,7.64
2019-02-19T10:42:51.602Z,7.51
2019-02-19T10:45:23.088Z,7.60
2019-02-19T10:47:53.285Z,7.59
2019-02-19T10:50:22.621Z,7.72
2019-02-19T10:52:52.637Z,7.76
2019-02-19T10:55:22.647Z,8.01
2019-02-19T10:57:52.019Z,7.99
2019-02-19T11:00:22.450Z,8.15
2019-02-19T11:02:51.719Z,8.34
2019-02-19T11:05:21.050Z,8.50
2019-02-19T11:07:50.313Z,8.31
2019-02-19T11:10:19.611Z,8.44
2019-02-19T11:12:50.281Z,8.48
2019-02-19T11:15:19.669Z,8.75
2019-02-19T11:17:48.849Z,8.90
2019-02-19T11:20:20.587Z,9.37
2019-02-19T11:22:50.132Z,8.90
2019-02-19T11:25:19.522Z,8.75
2019-02-19T11:27:49.666Z,8.88
2019-02-19T11:30:21.636Z,8.98
2019-02-19T11:32:51.406Z,8.73
2019-02-19T11:35:20.614Z,8.78
2019-02-19T11:37:50.221Z,8.66
2019-02-19T11:40:19.868Z,8.77
2019-02-19T11:42:49.361Z,8.68
2019-02-19T11:45:18.995Z,8.76
2019-02-19T11:47:50.217Z,8.85
2019-02-19T11:50:20.643Z,8.83
2019-02-19T11:52:50.234Z,8.98
2019-02-19T11:55:19.669Z,9.09
2019-02-19T11:57:49.902Z,9.14
2019-02-19T12:00:20.357Z,9.18
2019-02-19T12:02:49.669Z,9.70
2019-02-19T12:05:20.487Z,10.05
2019-02-19T12:07:50.907Z,9.84
2019-02-19T12:10:20.227Z,9.87
2019-02-19T12:12:50.483Z,11.74
2019-02-19T12:15:19.939Z,10.79
2019-02-19T12:17:49.300Z,10.40
2019-02-19T12:20:18.667Z,10.25
2019-02-19T12:22:47.965Z,10.97
2019-02-19T12:25:17.707Z,11.88
2019-02-19T12:27:47.921Z,10.63
2019-02-19T12:30:20.591Z,11.84
2019-02-19T12:32:49.983Z,11.97
2019-02-19T12:35:19.334Z,13.01
2019-02-19T12:37:48.783Z,12.69
2019-02-19T12:40:17.986Z,17.33
2019-02-19T12:42:47.922Z,14.53
2019-02-19T12:45:18.005Z,13.80
2019-02-19T12:47:47.411Z,13.91
2019-02-19T12:50:17.923Z,18.74
2019-02-19T12:52:47.232Z,15.60
2019-02-19T12:55:16.459Z,14.31
2019-02-19T12:57:45.844Z,14.11
2019-02-19T13:00:17.710Z,17.11
2019-02-19T13:02:47.791Z,19.97
2019-02-19T13:05:17.019Z,17.37
2019-02-19T13:07:47.080Z,20.33
2019-02-19T13:10:16.865Z,21.72
2019-02-19T13:12:46.577Z,21.16
2019-02-19T13:15:21.611Z,20.17
2019-02-19T13:17:51.033Z,21.66
2019-02-19T13:20:21.236Z,13.69
2019-02-19T13:22:50.719Z,12.76
2019-02-19T13:25:20.009Z,12.74
2019-02-19T13:27:49.117Z,12.20
2019-02-19T13:30:19.854Z,12.13
2019-02-19T13:32:50.433Z,11.81
2019-02-19T13:35:21.096Z,11.65
2019-02-19T13:37:50.304Z,11.70
2019-02-19T13:40:19.617Z,11.63
2019-02-19T13:42:48.992Z,11.41
2019-02-19T13:45:18.177Z,11.77
2019-02-19T13:47:47.613Z,13.60
2019-02-19T13:50:25.032Z,12.03
2019-02-19T13:52:58.165Z,13.29
2019-02-19T13:55:29.813Z,14.31
2019-02-19T13:57:59.805Z,13.13
2019-02-19T14:00:30.501Z,12.30
2019-02-19T14:03:01.053Z,12.00
2019-02-19T14:05:30.200Z,12.41
2019-02-19T14:07:59.571Z,12.26
2019-02-19T14:10:29.877Z,12.18
2019-02-19T14:12:59.247Z,12.07
2019-02-19T14:15:29.833Z,11.88
2019-02-19T14:18:00.455Z,11.94
2019-02-19T14:20:40.556Z,11.78
2019-02-19T14:23:15.572Z,11.70
2019-02-19T14:25:56.425Z,11.69
2019-02-19T14:28:43.117Z,12.09
2019-02-19T14:31:28.913Z,11.95
2019-02-19T14:34:11.463Z,12.11
2019-02-19T14:36:42.888Z,11.75
2019-02-19T14:39:31.061Z,11.76
2019-02-19T14:42:02.491Z,11.67
2019-02-19T14:44:49.303Z,11.32
2019-02-19T14:47:31.712Z,11.27
2019-02-19T14:50:21.005Z,10.99
2019-02-19T14:53:04.229Z,11.14
2019-02-19T14:55:50.888Z,11.24
2019-02-19T14:58:21.535Z,11.65
2019-02-19T15:00:58.793Z,11.55
2019-02-19T15:03:31.551Z,11.39
2019-02-19T15:06:03.169Z,11.32
2019-02-19T15:08:49.999Z,11.14
2019-02-19T15:11:36.797Z,10.97
2019-02-19T15:14:16.360Z,10.82
2019-02-19T15:16:56.387Z,10.74
2019-02-19T15:19:42.169Z,10.70
2019-02-19T15:22:25.482Z,10.47
2019-02-19T15:24:57.140Z,10.26
2019-02-19T15:27:30.258Z,10.59
2019-02-19T15:30:04.061Z,10.44
2019-02-19T15:32:41.612Z,10.54
2019-02-19T15:35:28.383Z,10.61
2019-02-19T15:38:01.261Z,10.55
2019-02-19T15:40:47.183Z,10.49
2019-02-19T15:43:30.297Z,10.54
2019-02-19T15:46:00.754Z,10.35
2019-02-19T15:48:42.836Z,10.46
2019-02-19T15:51:22.519Z,10.41
2019-02-19T15:54:00.312Z,10.29
2019-02-19T15:56:47.136Z,10.28
2019-02-19T15:59:17.801Z,10.21
2019-02-19T16:01:52.682Z,10.27
2019-02-19T16:04:23.306Z,10.17
2019-02-19T16:07:01.905Z,10.09
2019-02-19T16:09:40.582Z,10.01
2019-02-19T16:12:17.871Z,10.04
2019-02-19T16:14:48.563Z,10.11
2019-02-19T16:17:25.023Z,10.04
2019-02-19T16:19:57.219Z,9.91
2019-02-19T16:22:40.047Z,9.92
2019-02-19T16:25:13.770Z,9.85
2019-02-19T16:27:45.273Z,9.86
2019-02-19T16:30:27.675Z,9.87
2019-02-19T16:33:00.582Z,9.86
2019-02-19T16:35:32.026Z,9.72
2019-02-19T16:38:05.225Z,9.63
2019-02-19T16:40:53.225Z,9.60
2019-02-19T16:43:29.415Z,9.53
2019-02-19T16:46:06.969Z,9.49
2019-02-19T16:48:46.571Z,9.49
2019-02-19T16:51:24.173Z,9.24
2019-02-19T16:53:54.845Z,9.38
2019-02-19T16:56:38.007Z,9.19
2019-02-19T16:59:09.109Z,9.08
2019-02-19T17:01:55.571Z,9.34
2019-02-19T17:04:39.466Z,9.36
2019-02-19T17:07:10.755Z,9.15
2019-02-19T17:09:43.780Z,9.08
2019-02-19T17:12:14.478Z,8.87
2019-02-19T17:15:00.307Z,8.86
2019-02-19T17:17:50.673Z,8.95
2019-02-19T17:20:29.204Z,8.92
2019-02-19T17:23:11.365Z,8.94
2019-02-19T17:25:42.722Z,8.89
2019-02-19T17:28:25.221Z,8.92
2019-02-19T17:31:06.215Z,8.85
2019-02-19T17:33:39.967Z,8.73
2019-02-19T17:36:11.846Z,8.85
2019-02-19T17:38:51.566Z,8.59
2019-02-19T17:41:31.198Z,8.45
2019-02-19T17:44:02.074Z,8.41
2019-02-19T17:46:36.987Z,8.40
2019-02-19T17:49:19.636Z,8.28
2019-02-19T17:51:54.377Z,8.18
2019-02-19T17:54:27.812Z,8.13
2019-02-19T17:57:09.946Z,7.99
2019-02-19T17:59:40.749Z,8.07
2019-02-19T18:02:28.018Z,8.03
2019-02-19T18:05:05.259Z,8.17
2019-02-19T18:07:39.947Z,7.89
2019-02-19T18:10:27.048Z,7.92
2019-02-19T18:13:04.326Z,7.89
2019-02-19T18:15:51.668Z,7.82
2019-02-19T18:18:29.217Z,7.82
2019-02-19T18:20:59.527Z,7.84
2019-02-19T18:23:29.701Z,7.79
2019-02-19T18:25:58.873Z,7.97
2019-02-19T18:28:28.088Z,7.77
2019-02-19T18:30:57.391Z,7.74
2019-02-19T18:33:26.944Z,7.80
2019-02-19T18:35:57.237Z,7.63
2019-02-19T18:38:27.047Z,7.45
2019-02-19T18:40:57.408Z,7.53
2019-02-19T18:43:27.341Z,7.62
2019-02-19T18:45:56.664Z,7.56
2019-02-19T18:48:25.948Z,7.68
2019-02-19T18:50:58.551Z,7.85
2019-02-19T18:53:26.741Z,7.97
2019-02-19T18:55:58.499Z,7.71
2019-02-19T18:58:28.069Z,7.59
2019-02-19T19:00:57.387Z,7.54
2019-02-19T19:03:26.942Z,7.53
2019-02-19T19:05:56.825Z,7.43
2019-02-19T19:08:26.480Z,7.46
2019-02-19T19:10:56.628Z,7.58
2019-02-19T19:13:27.669Z,7.46
2019-02-19T19:15:58.625Z,7.49
2019-02-19T19:18:27.963Z,7.36
2019-02-19T19:20:57.629Z,7.20
2019-02-19T19:23:28.752Z,7.18
2019-02-19T19:25:58.470Z,7.09
2019-02-19T19:28:30.172Z,7.02
2019-02-19T19:31:00.653Z,7.17
2019-02-19T19:33:30.083Z,7.08
2019-02-19T19:35:59.338Z,7.17
2019-02-19T19:38:29.526Z,7.00
2019-02-19T19:40:58.965Z,7.06
2019-02-19T19:43:29.019Z,6.84
2019-02-19T19:46:00.335Z,6.88
2019-02-19T19:48:30.298Z,6.97
2019-02-19T19:51:00.041Z,6.83
2019-02-19T19:53:29.525Z,6.91
2019-02-19T19:55:59.684Z,6.67
2019-02-19T19:58:28.880Z,6.46
2019-02-19T20:00:58.399Z,6.08
2019-02-19T20:03:28.338Z,6.16
2019-02-19T20:05:59.662Z,6.42
2019-02-19T20:08:29.799Z,6.07
2019-02-19T20:10:59.176Z,6.08
2019-02-19T20:13:28.400Z,6.20
2019-02-19T20:15:57.983Z,6.36
2019-02-19T20:18:28.082Z,6.13
2019-02-19T20:20:57.863Z,6.14
2019-02-19T20:23:28.763Z,6.27
2019-02-19T20:25:58.829Z,6.00
2019-02-19T20:28:28.956Z,6.38
2019-02-19T20:30:59.094Z,6.29
2019-02-19T20:33:29.111Z,6.18
2019-02-19T20:35:58.414Z,6.41
2019-02-19T20:38:27.596Z,6.14
2019-02-19T20:40:58.037Z,6.26
2019-02-19T20:43:27.228Z,6.10
2019-02-19T20:45:56.581Z,5.85
2019-02-19T20:48:26.708Z,5.72
2019-02-19T20:50:56.744Z,5.76
2019-02-19T20:53:26.893Z,6.00
2019-02-19T20:55:56.460Z,6.34
2019-02-19T20:58:26.138Z,5.81
2019-02-19T21:00:57.310Z,5.68
2019-02-19T21:03:26.659Z,5.43
2019-02-19T21:05:56.279Z,5.53
2019-02-19T21:08:25.571Z,5.52
2019-02-19T21:10:55.419Z,5.47
2019-02-19T21:13:25.087Z,5.29
2019-02-19T21:15:55.317Z,5.60
2019-02-19T21:18:24.916Z,5.36
2019-02-19T21:20:54.812Z,5.13
2019-02-19T21:23:24.142Z,5.36
2019-02-19T21:25:53.310Z,5.19
2019-02-19T21:28:24.170Z,5.06
2019-02-19T21:30:54.330Z,4.92
2019-02-19T21:33:23.699Z,5.00
2019-02-19T21:35:57.623Z,4.95
2019-02-19T21:38:25.960Z,4.92
2019-02-19T21:40:55.306Z,4.87
2019-02-19T21:43:24.874Z,5.02
2019-02-19T21:45:54.282Z,5.08
2019-02-19T21:48:24.343Z,4.95
2019-02-19T21:50:53.885Z,5.12
2019-02-19T21:53:23.255Z,4.90
2019-02-19T21:55:54.760Z,4.68
2019-02-19T21:58:24.289Z,4.79
2019-02-19T22:00:54.535Z,4.85
2019-02-19T22:03:23.945Z,4.99
2019-02-19T22:05:53.433Z,4.73
2019-02-19T22:08:23.622Z,4.70
2019-02-19T22:10:53.936Z,4.75
2019-02-19T22:13:24.765Z,4.75
2019-02-19T22:15:54.462Z,4.84
2019-02-19T22:18:24.260Z,4.97
2019-02-19T22:21:00.708Z,4.75
2019-02-19T22:23:30.071Z,4.76
2019-02-19T22:25:59.780Z,4.95
2019-02-19T22:28:29.882Z,4.99
2019-02-19T22:30:59.172Z,5.44
2019-02-19T22:33:28.481Z,5.11
2019-02-19T22:35:57.903Z,4.96
2019-02-19T22:38:27.241Z,4.73
2019-02-19T22:40:56.443Z,4.79
2019-02-19T22:43:26.104Z,4.75
2019-02-19T22:45:56.747Z,4.75
2019-02-19T22:48:26.860Z,4.76
2019-02-19T22:50:56.221Z,4.85
2019-02-19T22:53:43.173Z,5.15
2019-02-19T22:56:13.893Z,4.88
2019-02-19T22:58:44.016Z,4.80
2019-02-19T23:01:20.657Z,4.79
2019-02-19T23:03:50.879Z,4.75
